createdAt,value
2022-10-23T00:00:30.447Z,21.77
2022-10-23T00:01:52.129Z,22.84
2022-10-23T00:02:54.928Z,22.01
2022-10-23T00:04:06.556Z,22.80
2022-10-23T00:05:08.644Z,22.57
2022-10-23T00:06:11.936Z,20.48
2022-10-23T00:07:13.579Z,22.25
2022-10-23T00:08:15.400Z,22.21
2022-10-23T00:09:20.048Z,22.71
2022-10-23T00:10:23.698Z,23.03
2022-10-23T00:11:29.060Z,20.96
2022-10-23T00:12:30.805Z,21.40
2022-10-23T00:13:32.540Z,21.75
2022-10-23T00:14:35.096Z,22.18
2022-10-23T00:15:37.077Z,21.34
2022-10-23T00:16:38.872Z,20.97
2022-10-23T00:17:40.780Z,21.08
2022-10-23T00:18:42.712Z,21.00
2022-10-23T00:19:44.465Z,20.85
2022-10-23T00:20:46.108Z,21.75
2022-10-23T00:21:48.560Z,21.61
2022-10-23T00:22:50.231Z,21.42
2022-10-23T00:23:52.523Z,21.53
2022-10-23T00:24:54.162Z,21.45
2022-10-23T00:25:55.820Z,20.76
2022-10-23T00:26:57.488Z,21.41
2022-10-23T00:28:00.273Z,21.41
2022-10-23T00:29:01.995Z,21.50
2022-10-23T00:30:05.625Z,21.43
2022-10-23T00:31:07.278Z,22.93
2022-10-23T00:32:08.990Z,21.55
2022-10-23T00:33:11.084Z,21.91
2022-10-23T00:34:12.791Z,20.81
2022-10-23T00:35:15.824Z,21.87
2022-10-23T00:36:19.742Z,22.19
2022-10-23T00:37:21.870Z,21.75
2022-10-23T00:38:23.765Z,20.88
2022-10-23T00:39:25.490Z,20.76
2022-10-23T00:40:27.807Z,20.15
2022-10-23T00:41:32.177Z,21.74
2022-10-23T00:42:33.894Z,23.14
2022-10-23T00:44:00.277Z,21.37
2022-10-23T00:45:17.965Z,21.00
2022-10-23T00:46:19.660Z,20.54
2022-10-23T00:47:21.706Z,20.99
2022-10-23T00:48:24.076Z,20.45
2022-10-23T00:49:26.402Z,22.20
2022-10-23T00:50:31.456Z,20.45
2022-10-23T00:51:40.888Z,21.09
2022-10-23T00:52:48.426Z,20.65
2022-10-23T00:54:01.370Z,21.80
2022-10-23T00:55:16.321Z,20.45
2022-10-23T00:56:18.288Z,20.26
2022-10-23T00:57:20.077Z,20.72
2022-10-23T00:58:22.198Z,21.39
2022-10-23T00:59:24.425Z,21.08
2022-10-23T01:00:30.177Z,21.38
2022-10-23T01:01:33.997Z,21.30
2022-10-23T01:02:35.847Z,21.63
2022-10-23T01:03:37.609Z,21.34
2022-10-23T01:04:39.408Z,21.07
2022-10-23T01:06:00.247Z,20.67
2022-10-23T01:07:20.193Z,21.46
2022-10-23T01:08:38.464Z,20.61
2022-10-23T01:10:07.483Z,21.10
2022-10-23T01:11:20.492Z,22.76
2022-10-23T01:12:46.749Z,21.65
2022-10-23T01:15:20.327Z,21.98
2022-10-23T01:16:39.210Z,22.44
2022-10-23T01:18:20.908Z,21.71
2022-10-23T01:19:48.215Z,21.70
2022-10-23T01:21:16.312Z,21.80
2022-10-23T01:22:38.340Z,21.29
2022-10-23T01:23:54.454Z,20.13
2022-10-23T01:25:17.389Z,20.82
2022-10-23T01:27:11.062Z,22.09
2022-10-23T01:28:25.576Z,20.60
2022-10-23T01:29:59.331Z,20.33
2022-10-23T01:31:14.689Z,22.38
2022-10-23T01:32:27.604Z,21.50
2022-10-23T01:33:41.275Z,22.20
2022-10-23T01:34:49.090Z,20.25
2022-10-23T01:36:00.246Z,20.04
2022-10-23T01:37:08.201Z,21.06
2022-10-23T01:38:19.465Z,19.87
2022-10-23T01:39:36.023Z,20.23
2022-10-23T01:40:48.793Z,20.13
2022-10-23T01:41:57.074Z,21.00
2022-10-23T01:43:17.361Z,20.34
2022-10-23T01:44:34.244Z,19.62
2022-10-23T01:45:39.838Z,20.93
2022-10-23T01:46:47.356Z,19.92
2022-10-23T01:47:51.005Z,19.81
2022-10-23T01:48:56.150Z,19.97
2022-10-23T01:50:00.920Z,21.23
2022-10-23T01:51:07.945Z,20.67
2022-10-23T01:52:14.571Z,20.84
2022-10-23T01:53:21.932Z,21.27
2022-10-23T01:54:31.449Z,20.05
2022-10-23T01:55:37.154Z,20.52
2022-10-23T01:56:46.579Z,20.88
2022-10-23T01:57:52.080Z,20.35
2022-10-23T01:58:58.266Z,19.86
2022-10-23T02:00:09.563Z,21.45
2022-10-23T02:01:31.119Z,19.68
2022-10-23T02:02:36.203Z,19.33
2022-10-23T02:03:43.099Z,19.18
2022-10-23T02:05:13.502Z,19.67
2022-10-23T02:06:15.663Z,19.45
2022-10-23T02:07:17.450Z,19.20
2022-10-23T02:08:19.218Z,20.26
2022-10-23T02:09:21.108Z,19.42
2022-10-23T02:10:32.424Z,19.04
2022-10-23T02:11:48.412Z,18.98
2022-10-23T02:13:02.904Z,18.30
2022-10-23T02:14:26.124Z,19.82
2022-10-23T02:15:40.700Z,20.20
2022-10-23T02:16:55.199Z,19.91
2022-10-23T02:18:13.435Z,20.35
2022-10-23T02:19:31.877Z,19.41
2022-10-23T02:20:52.313Z,18.35
2022-10-23T02:22:05.035Z,18.34
2022-10-23T02:23:22.897Z,17.64
2022-10-23T02:24:43.660Z,17.92
2022-10-23T02:25:59.175Z,17.45
2022-10-23T02:27:08.141Z,17.32
2022-10-23T02:28:17.805Z,18.23
2022-10-23T02:29:33.638Z,18.83
2022-10-23T02:30:42.189Z,18.94
2022-10-23T02:31:45.374Z,18.11
2022-10-23T02:32:51.435Z,18.55
2022-10-23T02:33:53.804Z,17.51
2022-10-23T02:34:56.996Z,17.93
2022-10-23T02:35:59.173Z,17.21
2022-10-23T02:37:02.929Z,17.53
2022-10-23T02:38:35.484Z,17.78
2022-10-23T02:39:37.394Z,18.59
2022-10-23T02:40:44.337Z,17.59
2022-10-23T02:42:20.506Z,17.64
2022-10-23T02:43:35.779Z,17.41
2022-10-23T02:44:49.918Z,17.45
2022-10-23T02:46:04.642Z,17.36
2022-10-23T02:47:32.668Z,18.08
2022-10-23T02:48:47.943Z,17.86
2022-10-23T02:50:27.904Z,18.03
2022-10-23T02:51:48.660Z,18.82
2022-10-23T02:53:04.079Z,18.19
2022-10-23T02:54:36.264Z,17.37
2022-10-23T02:55:45.518Z,17.65
2022-10-23T02:57:03.370Z,17.29
2022-10-23T02:58:10.669Z,17.58
2022-10-23T02:59:43.910Z,17.65
2022-10-23T03:00:53.886Z,17.06
2022-10-23T03:02:07.020Z,16.94
2022-10-23T03:03:33.693Z,17.12
2022-10-23T03:04:40.452Z,16.93
2022-10-23T03:05:47.238Z,17.17
2022-10-23T03:06:51.110Z,17.09
2022-10-23T03:07:52.985Z,17.78
2022-10-23T03:08:58.119Z,18.13
2022-10-23T03:10:00.078Z,17.00
2022-10-23T03:11:01.854Z,16.99
2022-10-23T03:12:03.686Z,16.79
2022-10-23T03:13:09.311Z,17.83
2022-10-23T03:14:16.079Z,17.53
2022-10-23T03:15:17.955Z,17.90
2022-10-23T03:16:19.616Z,17.50
2022-10-23T03:17:25.824Z,18.54
2022-10-23T03:18:29.489Z,18.56
2022-10-23T03:19:33.150Z,18.08
2022-10-23T03:20:36.293Z,18.00
2022-10-23T03:21:37.999Z,19.65
2022-10-23T03:22:43.057Z,19.89
2022-10-23T03:23:45.509Z,19.83
2022-10-23T03:24:50.919Z,18.95
2022-10-23T03:25:54.090Z,19.41
2022-10-23T03:27:05.386Z,18.99
2022-10-23T03:28:07.244Z,18.82
2022-10-23T03:29:09.785Z,19.02
2022-10-23T03:30:16.530Z,18.66
2022-10-23T03:31:18.533Z,18.54
2022-10-23T03:32:20.406Z,20.47
2022-10-23T03:33:22.417Z,19.95
2022-10-23T03:34:24.049Z,20.45
2022-10-23T03:35:27.732Z,20.55
2022-10-23T03:36:29.373Z,19.81
2022-10-23T03:37:31.211Z,20.45
2022-10-23T03:38:32.924Z,19.99
2022-10-23T03:39:34.875Z,20.59
2022-10-23T03:40:36.667Z,19.82
2022-10-23T03:41:38.356Z,19.35
2022-10-23T03:42:40.025Z,19.44
2022-10-23T03:43:43.228Z,20.67
2022-10-23T03:44:44.951Z,21.08
2022-10-23T03:45:46.704Z,20.13
2022-10-23T03:46:51.003Z,20.13
2022-10-23T03:47:52.711Z,20.36
2022-10-23T03:48:56.852Z,20.83
2022-10-23T03:49:58.591Z,21.23
2022-10-23T03:51:00.298Z,21.14
2022-10-23T03:52:01.978Z,21.32
2022-10-23T03:53:03.784Z,21.08
2022-10-23T03:54:05.709Z,21.52
2022-10-23T03:55:08.015Z,21.34
2022-10-23T03:56:11.438Z,21.09
2022-10-23T03:57:14.444Z,20.65
2022-10-23T03:58:16.129Z,20.33
2022-10-23T03:59:17.784Z,20.72
2022-10-23T04:00:19.618Z,20.50
2022-10-23T04:01:22.309Z,20.41
2022-10-23T04:02:24.836Z,21.11
2022-10-23T04:03:26.994Z,21.09
2022-10-23T04:04:28.657Z,21.27
2022-10-23T04:05:30.354Z,20.54
2022-10-23T04:06:33.397Z,20.52
2022-10-23T04:07:35.258Z,20.43
2022-10-23T04:08:38.107Z,20.72
2022-10-23T04:09:46.531Z,20.81
2022-10-23T04:10:51.118Z,21.27
2022-10-23T04:11:57.202Z,21.24
2022-10-23T04:13:02.149Z,23.17
2022-10-23T04:14:13.351Z,21.34
2022-10-23T04:15:15.046Z,21.01
2022-10-23T04:16:20.078Z,21.16
2022-10-23T04:17:21.845Z,21.57
2022-10-23T04:18:24.649Z,21.62
2022-10-23T04:19:26.963Z,20.42
2022-10-23T04:20:31.620Z,22.33
2022-10-23T04:21:36.716Z,21.60
2022-10-23T04:22:38.468Z,21.33
2022-10-23T04:23:40.492Z,22.20
2022-10-23T04:24:48.101Z,21.71
2022-10-23T04:25:56.225Z,22.56
2022-10-23T04:26:59.152Z,22.22
2022-10-23T04:28:02.466Z,21.04
2022-10-23T04:29:07.970Z,21.47
2022-10-23T04:30:10.316Z,22.00
2022-10-23T04:31:13.039Z,22.49
2022-10-23T04:32:18.128Z,20.26
2022-10-23T04:33:20.116Z,22.11
2022-10-23T04:34:24.360Z,19.55
2022-10-23T04:35:28.180Z,19.77
2022-10-23T04:36:29.940Z,20.57
2022-10-23T04:37:36.688Z,21.17
2022-10-23T04:38:38.370Z,21.77
2022-10-23T04:39:41.460Z,21.66
2022-10-23T04:40:48.060Z,21.84
2022-10-23T04:41:54.736Z,20.86
2022-10-23T04:42:59.097Z,19.84
2022-10-23T04:44:01.403Z,20.08
2022-10-23T04:45:04.515Z,20.14
2022-10-23T04:46:07.870Z,20.64
2022-10-23T04:47:09.570Z,19.73
2022-10-23T04:48:23.423Z,20.04
2022-10-23T04:49:45.717Z,19.55
2022-10-23T04:51:02.034Z,19.64
2022-10-23T04:52:23.111Z,20.26
2022-10-23T04:54:09.508Z,42.88
2022-10-23T04:55:29.505Z,76.16
2022-10-23T04:56:45.699Z,91.16
2022-10-23T04:57:52.128Z,58.18
2022-10-23T04:58:57.979Z,31.23
2022-10-23T04:59:59.817Z,63.69
2022-10-23T05:01:02.372Z,79.40
2022-10-23T05:02:04.487Z,82.13
2022-10-23T05:03:06.182Z,39.29
2022-10-23T05:04:14.427Z,31.26
2022-10-23T05:05:54.669Z,26.35
2022-10-23T05:07:12.051Z,21.74
2022-10-23T05:08:32.733Z,26.34
2022-10-23T05:09:46.418Z,22.68
2022-10-23T05:10:57.626Z,24.82
2022-10-23T05:11:59.483Z,33.40
2022-10-23T05:13:01.936Z,32.38
2022-10-23T05:14:03.989Z,28.53
2022-10-23T05:15:06.598Z,22.86
2022-10-23T05:16:08.505Z,27.21
2022-10-23T05:17:24.285Z,31.18
2022-10-23T05:18:40.754Z,38.89
2022-10-23T05:19:50.658Z,28.93
2022-10-23T05:21:01.452Z,31.36
2022-10-23T05:22:05.906Z,31.07
2022-10-23T05:23:31.406Z,41.31
2022-10-23T05:24:36.436Z,30.25
2022-10-23T05:25:39.371Z,44.56
2022-10-23T05:26:54.662Z,41.92
2022-10-23T05:27:56.464Z,46.60
2022-10-23T05:28:58.225Z,28.70
2022-10-23T05:30:00.209Z,22.84
2022-10-23T05:31:06.176Z,21.32
2022-10-23T05:32:15.813Z,24.87
2022-10-23T05:33:18.327Z,27.06
2022-10-23T05:34:25.612Z,37.60
2022-10-23T05:35:29.784Z,39.61
2022-10-23T05:36:32.143Z,31.72
2022-10-23T05:37:34.571Z,27.91
2022-10-23T05:39:09.727Z,25.23
2022-10-23T05:40:12.310Z,24.51
2022-10-23T05:41:15.625Z,21.80
2022-10-23T05:42:17.689Z,22.23
2022-10-23T05:43:20.144Z,25.11
2022-10-23T05:44:30.624Z,23.87
2022-10-23T05:45:45.099Z,22.34
2022-10-23T05:47:01.611Z,23.52
2022-10-23T05:48:33.923Z,23.13
2022-10-23T05:50:06.517Z,21.80
2022-10-23T05:51:11.878Z,23.15
2022-10-23T05:53:03.688Z,24.54
2022-10-23T05:54:26.248Z,25.94
2022-10-23T05:55:46.626Z,22.08
2022-10-23T05:57:04.352Z,25.57
2022-10-23T05:58:08.586Z,31.78
2022-10-23T05:59:28.870Z,37.59
2022-10-23T06:00:36.846Z,31.46
2022-10-23T06:01:49.441Z,23.34
2022-10-23T06:02:56.435Z,22.49
2022-10-23T06:04:05.884Z,24.91
2022-10-23T06:05:52.360Z,25.32
2022-10-23T06:06:56.643Z,26.62
2022-10-23T06:07:59.220Z,24.19
2022-10-23T06:09:01.748Z,28.41
2022-10-23T06:10:05.702Z,21.84
2022-10-23T06:11:11.254Z,22.19
2022-10-23T06:12:13.041Z,21.44
2022-10-23T06:13:17.787Z,20.79
2022-10-23T06:14:19.603Z,23.71
2022-10-23T06:15:23.029Z,21.63
2022-10-23T06:16:31.669Z,23.19
2022-10-23T06:17:33.454Z,24.36
2022-10-23T06:18:35.278Z,23.29
2022-10-23T06:19:40.981Z,28.39
2022-10-23T06:20:42.656Z,22.99
2022-10-23T06:21:48.330Z,19.87
2022-10-23T06:22:50.033Z,20.66
2022-10-23T06:24:13.663Z,19.71
2022-10-23T06:25:23.642Z,18.89
2022-10-23T06:26:28.015Z,21.51
2022-10-23T06:27:42.127Z,22.52
2022-10-23T06:28:46.023Z,18.96
2022-10-23T06:29:47.769Z,20.55
2022-10-23T06:30:49.711Z,19.90
2022-10-23T06:31:51.425Z,20.08
2022-10-23T06:32:54.052Z,17.87
2022-10-23T06:33:57.037Z,18.10
2022-10-23T06:34:58.762Z,18.09
2022-10-23T06:36:00.949Z,21.12
2022-10-23T06:37:02.797Z,17.32
2022-10-23T06:38:18.658Z,17.63
2022-10-23T06:39:29.824Z,17.30
2022-10-23T06:40:42.532Z,18.44
2022-10-23T06:41:45.457Z,16.84
2022-10-23T06:42:51.621Z,18.41
2022-10-23T06:44:22.569Z,15.74
2022-10-23T06:45:30.166Z,16.59
2022-10-23T06:46:50.170Z,15.84
2022-10-23T06:48:10.927Z,15.66
2022-10-23T06:49:18.546Z,14.15
2022-10-23T06:50:22.630Z,14.01
2022-10-23T06:51:25.036Z,13.54
2022-10-23T06:52:47.808Z,12.47
2022-10-23T06:53:51.827Z,13.74
2022-10-23T06:55:13.560Z,14.05
2022-10-23T06:56:16.005Z,13.18
2022-10-23T06:57:18.066Z,13.15
2022-10-23T06:58:21.304Z,14.25
2022-10-23T06:59:32.983Z,13.40
2022-10-23T07:00:38.662Z,12.62
2022-10-23T07:01:41.263Z,13.22
2022-10-23T07:02:44.533Z,13.55
2022-10-23T07:03:48.996Z,13.37
2022-10-23T07:04:52.760Z,13.22
2022-10-23T07:05:54.485Z,13.27
2022-10-23T07:06:57.269Z,12.41
2022-10-23T07:08:02.159Z,13.91
2022-10-23T07:09:05.991Z,13.98
2022-10-23T07:10:26.816Z,16.03
2022-10-23T07:11:33.490Z,13.87
2022-10-23T07:12:36.304Z,13.90
2022-10-23T07:14:27.200Z,14.10
2022-10-23T07:15:35.687Z,14.80
2022-10-23T07:16:37.887Z,15.26
2022-10-23T07:17:39.756Z,15.52
2022-10-23T07:18:43.526Z,14.37
2022-10-23T07:20:03.828Z,15.07
2022-10-23T07:21:05.891Z,15.22
2022-10-23T07:22:09.730Z,14.67
2022-10-23T07:23:21.463Z,15.77
2022-10-23T07:24:23.310Z,15.16
2022-10-23T07:25:27.162Z,15.31
2022-10-23T07:26:29.407Z,15.78
2022-10-23T07:27:36.762Z,15.86
2022-10-23T07:28:39.029Z,15.49
2022-10-23T07:29:40.908Z,15.92
2022-10-23T07:30:43.174Z,16.29
2022-10-23T07:31:46.195Z,15.59
2022-10-23T07:33:19.979Z,16.22
2022-10-23T07:34:32.378Z,16.72
2022-10-23T07:35:50.095Z,16.36
2022-10-23T07:36:59.713Z,15.21
2022-10-23T07:38:02.467Z,15.85
2022-10-23T07:39:06.805Z,15.66
2022-10-23T07:40:11.583Z,16.06
2022-10-23T07:41:18.081Z,14.80
2022-10-23T07:42:20.237Z,15.24
2022-10-23T07:43:23.986Z,14.96
2022-10-23T07:44:27.747Z,15.58
2022-10-23T07:45:29.804Z,15.18
2022-10-23T07:46:32.023Z,15.69
2022-10-23T07:47:34.156Z,16.64
2022-10-23T07:48:38.983Z,16.10
2022-10-23T07:49:40.875Z,16.45
2022-10-23T07:50:42.824Z,16.06
2022-10-23T07:51:49.003Z,16.32
2022-10-23T07:52:54.020Z,17.69
2022-10-23T07:53:59.213Z,18.18
2022-10-23T07:55:26.426Z,16.32
2022-10-23T07:56:33.118Z,16.20
2022-10-23T07:57:47.232Z,15.88
2022-10-23T07:59:05.093Z,15.72
2022-10-23T08:00:10.110Z,16.73
2022-10-23T08:01:23.834Z,16.85
2022-10-23T08:02:25.863Z,17.79
2022-10-23T08:03:31.252Z,16.85
2022-10-23T08:04:34.345Z,15.69
2022-10-23T08:05:43.478Z,16.68
2022-10-23T08:06:45.387Z,17.23
2022-10-23T08:07:47.452Z,17.67
2022-10-23T08:08:49.359Z,18.11
2022-10-23T08:09:51.155Z,17.66
2022-10-23T08:10:55.509Z,18.00
2022-10-23T08:12:01.735Z,17.20
2022-10-23T08:13:04.539Z,17.05
2022-10-23T08:14:22.599Z,17.27
2022-10-23T08:15:24.809Z,16.86
2022-10-23T08:16:31.562Z,18.23
2022-10-23T08:17:36.028Z,15.19
2022-10-23T08:18:45.723Z,15.98
2022-10-23T08:19:48.568Z,16.93
2022-10-23T08:20:52.536Z,16.53
2022-10-23T08:21:55.322Z,17.36
2022-10-23T08:22:57.167Z,16.58
2022-10-23T08:24:01.241Z,16.24
2022-10-23T08:25:03.493Z,17.61
2022-10-23T08:26:07.426Z,17.12
2022-10-23T08:27:09.889Z,17.02
2022-10-23T08:28:17.219Z,16.99
2022-10-23T08:29:26.661Z,16.33
2022-10-23T08:30:28.922Z,16.47
2022-10-23T08:31:33.194Z,16.46
2022-10-23T08:32:53.810Z,17.55
2022-10-23T08:33:55.681Z,18.62
2022-10-23T08:34:57.542Z,18.82
2022-10-23T08:36:00.153Z,18.82
2022-10-23T08:37:05.705Z,19.63
2022-10-23T08:38:10.748Z,19.37
2022-10-23T08:39:17.116Z,20.84
2022-10-23T08:40:37.255Z,19.84
2022-10-23T08:41:54.657Z,21.47
2022-10-23T08:43:06.525Z,21.95
2022-10-23T08:44:27.354Z,21.81
2022-10-23T08:45:38.400Z,22.29
2022-10-23T08:47:00.470Z,21.73
2022-10-23T08:49:20.747Z,21.20
2022-10-23T08:50:47.149Z,21.10
2022-10-23T08:51:53.503Z,20.26
2022-10-23T08:53:05.529Z,20.57
2022-10-23T08:54:34.217Z,21.43
2022-10-23T08:55:47.105Z,22.41
2022-10-23T08:56:57.326Z,21.35
2022-10-23T08:58:11.050Z,22.16
2022-10-23T08:59:38.249Z,23.24
2022-10-23T09:00:40.089Z,23.27
2022-10-23T09:01:55.895Z,21.88
2022-10-23T09:03:02.030Z,20.98
2022-10-23T09:04:05.554Z,19.72
2022-10-23T09:05:20.021Z,19.97
2022-10-23T09:06:35.567Z,20.68
2022-10-23T09:07:52.382Z,19.94
2022-10-23T09:09:17.736Z,18.96
2022-10-23T09:10:22.667Z,19.99
2022-10-23T09:11:37.777Z,19.86
2022-10-23T09:12:40.030Z,19.61
2022-10-23T09:14:19.227Z,18.47
2022-10-23T09:15:31.619Z,17.64
2022-10-23T09:16:54.379Z,18.27
2022-10-23T09:18:06.741Z,17.71
2022-10-23T09:19:20.582Z,17.91
2022-10-23T09:20:31.621Z,17.95
2022-10-23T09:21:33.394Z,16.88
2022-10-23T09:22:35.651Z,17.77
2022-10-23T09:23:37.965Z,17.74
2022-10-23T09:24:43.545Z,17.77
2022-10-23T09:25:47.737Z,17.94
2022-10-23T09:26:53.387Z,18.69
2022-10-23T09:28:00.161Z,18.20
2022-10-23T09:29:27.377Z,19.27
2022-10-23T09:30:39.337Z,18.15
2022-10-23T09:31:52.322Z,19.01
2022-10-23T09:32:54.401Z,18.63
2022-10-23T09:33:59.747Z,17.58
2022-10-23T09:35:01.896Z,17.89
2022-10-23T09:36:08.355Z,17.69
2022-10-23T09:37:28.442Z,17.74
2022-10-23T09:38:34.325Z,18.59
2022-10-23T09:39:36.797Z,17.92
2022-10-23T09:40:42.972Z,17.59
2022-10-23T09:41:45.845Z,17.90
2022-10-23T09:42:55.894Z,17.27
2022-10-23T09:44:07.748Z,18.20
2022-10-23T09:45:32.523Z,17.03
2022-10-23T09:46:38.603Z,18.66
2022-10-23T09:47:40.621Z,18.71
2022-10-23T09:48:42.663Z,19.23
2022-10-23T09:49:50.303Z,18.00
2022-10-23T09:50:54.358Z,18.75
2022-10-23T09:52:08.269Z,17.86
2022-10-23T09:53:18.172Z,17.81
2022-10-23T09:54:24.274Z,18.22
2022-10-23T09:55:27.769Z,18.21
2022-10-23T09:56:41.805Z,18.18
2022-10-23T09:57:45.128Z,19.53
2022-10-23T09:59:00.842Z,18.73
2022-10-23T10:00:17.026Z,18.89
2022-10-23T10:01:32.850Z,17.12
2022-10-23T10:03:05.399Z,16.83
2022-10-23T10:04:17.479Z,18.39
2022-10-23T10:05:30.071Z,17.50
2022-10-23T10:06:35.371Z,17.69
2022-10-23T10:07:38.243Z,17.42
2022-10-23T10:08:50.920Z,17.28
2022-10-23T10:09:55.411Z,17.78
2022-10-23T10:11:27.665Z,16.34
2022-10-23T10:12:35.770Z,16.89
2022-10-23T10:14:31.029Z,16.41
2022-10-23T10:15:52.995Z,16.54
2022-10-23T10:17:05.072Z,16.07
2022-10-23T10:18:36.138Z,16.99
2022-10-23T10:20:07.723Z,16.16
2022-10-23T10:21:25.221Z,16.82
2022-10-23T10:22:40.881Z,17.27
2022-10-23T10:24:02.550Z,15.96
2022-10-23T10:25:18.496Z,15.88
2022-10-23T10:27:06.335Z,16.83
2022-10-23T10:28:45.573Z,16.03
2022-10-23T10:30:37.746Z,16.06
2022-10-23T10:32:12.132Z,16.55
2022-10-23T10:33:58.457Z,15.23
2022-10-23T10:35:09.027Z,15.76
2022-10-23T10:36:39.829Z,16.22
2022-10-23T10:38:11.364Z,15.98
2022-10-23T10:39:35.524Z,16.45
2022-10-23T10:40:47.263Z,16.68
2022-10-23T10:42:08.763Z,15.75
2022-10-23T10:43:22.600Z,15.57
2022-10-23T10:45:01.848Z,16.09
2022-10-23T10:46:34.299Z,15.30
2022-10-23T10:48:06.424Z,16.25
2022-10-23T10:50:01.276Z,15.81
2022-10-23T10:51:27.149Z,16.03
2022-10-23T10:52:36.657Z,16.45
2022-10-23T10:53:57.950Z,15.63
2022-10-23T10:55:16.863Z,14.70
2022-10-23T10:56:23.183Z,15.23
2022-10-23T10:57:31.188Z,15.45
2022-10-23T10:58:45.009Z,15.77
2022-10-23T10:59:53.098Z,16.09
2022-10-23T11:01:00.587Z,15.32
2022-10-23T11:02:21.758Z,16.59
2022-10-23T11:03:48.719Z,16.64
2022-10-23T11:05:21.017Z,16.46
2022-10-23T11:06:30.469Z,17.27
2022-10-23T11:07:41.773Z,16.31
2022-10-23T11:08:56.447Z,16.52
2022-10-23T11:10:12.273Z,16.56
2022-10-23T11:11:23.187Z,15.40
2022-10-23T11:12:28.124Z,16.05
2022-10-23T11:13:40.517Z,15.74
2022-10-23T11:14:43.811Z,14.76
2022-10-23T11:15:46.675Z,14.56
2022-10-23T11:17:09.449Z,15.32
2022-10-23T11:18:25.807Z,15.65
2022-10-23T11:19:40.439Z,15.94
2022-10-23T11:20:53.862Z,18.55
2022-10-23T11:22:03.204Z,17.34
2022-10-23T11:23:31.180Z,17.00
2022-10-23T11:24:35.627Z,15.59
2022-10-23T11:25:50.726Z,15.39
2022-10-23T11:27:31.187Z,14.88
2022-10-23T11:28:51.068Z,16.42
2022-10-23T11:30:17.713Z,14.95
2022-10-23T11:31:31.235Z,13.91
2022-10-23T11:32:57.545Z,14.58
2022-10-23T11:34:16.666Z,15.18
2022-10-23T11:35:46.425Z,15.29
2022-10-23T11:36:58.499Z,14.12
2022-10-23T11:38:32.139Z,15.08
2022-10-23T11:39:39.083Z,14.87
2022-10-23T11:40:56.861Z,15.12
2022-10-23T11:42:11.657Z,15.80
2022-10-23T11:43:13.536Z,14.92
2022-10-23T11:44:28.220Z,15.35
2022-10-23T11:45:32.470Z,15.51
2022-10-23T11:46:35.792Z,15.25
2022-10-23T11:47:43.314Z,14.96
2022-10-23T11:48:45.184Z,15.22
2022-10-23T11:49:47.014Z,14.79
2022-10-23T11:50:49.560Z,14.64
2022-10-23T11:52:05.443Z,13.90
2022-10-23T11:53:25.560Z,13.61
2022-10-23T11:54:27.823Z,15.50
2022-10-23T11:55:31.762Z,14.84
2022-10-23T11:56:34.298Z,14.84
2022-10-23T11:57:36.179Z,14.59
2022-10-23T11:58:44.516Z,14.55
2022-10-23T11:59:48.837Z,14.55
2022-10-23T12:01:04.100Z,15.05
2022-10-23T12:02:39.660Z,13.48
2022-10-23T12:04:04.469Z,13.42
2022-10-23T12:05:29.611Z,13.01
2022-10-23T12:06:52.579Z,12.47
2022-10-23T12:07:58.787Z,13.32
2022-10-23T12:09:06.868Z,13.77
2022-10-23T12:10:27.018Z,14.25
2022-10-23T12:11:42.376Z,14.10
2022-10-23T12:12:59.288Z,14.02
2022-10-23T12:14:01.071Z,14.08
2022-10-23T12:15:22.164Z,13.04
2022-10-23T12:16:34.740Z,12.62
2022-10-23T12:17:40.200Z,12.28
2022-10-23T12:18:53.149Z,12.53
2022-10-23T12:20:04.258Z,12.65
2022-10-23T12:21:18.355Z,11.92
2022-10-23T12:22:26.271Z,11.89
2022-10-23T12:24:06.734Z,11.77
2022-10-23T12:25:31.722Z,11.36
2022-10-23T12:27:08.739Z,10.65
2022-10-23T12:28:22.359Z,11.58
2022-10-23T12:29:36.779Z,10.45
2022-10-23T12:30:58.720Z,10.74
2022-10-23T12:32:39.104Z,10.53
2022-10-23T12:34:25.507Z,11.05
2022-10-23T12:35:48.783Z,9.84
2022-10-23T12:36:50.516Z,10.80
2022-10-23T12:38:10.622Z,11.30
2022-10-23T12:39:33.412Z,10.27
2022-10-23T12:40:35.305Z,10.30
2022-10-23T12:41:38.955Z,10.47
2022-10-23T12:42:41.665Z,9.95
2022-10-23T12:43:53.374Z,10.01
2022-10-23T12:45:29.659Z,10.29
2022-10-23T12:46:41.307Z,10.43
2022-10-23T12:47:46.519Z,10.62
2022-10-23T12:48:53.079Z,10.75
2022-10-23T12:49:55.005Z,9.88
2022-10-23T12:50:57.628Z,10.08
2022-10-23T12:52:02.752Z,10.18
2022-10-23T12:53:08.426Z,9.96
2022-10-23T12:54:17.061Z,9.80
2022-10-23T12:55:19.486Z,10.41
2022-10-23T12:56:22.413Z,10.17
2022-10-23T12:57:28.134Z,10.45
2022-10-23T12:58:35.352Z,10.25
2022-10-23T12:59:41.865Z,10.80
2022-10-23T13:00:54.694Z,10.41
2022-10-23T13:01:56.670Z,10.83
2022-10-23T13:03:02.197Z,10.51
2022-10-23T13:04:29.761Z,10.62
2022-10-23T13:05:32.671Z,9.73
2022-10-23T13:06:35.107Z,10.20
2022-10-23T13:07:44.671Z,10.20
2022-10-23T13:08:48.852Z,9.67
2022-10-23T13:10:16.038Z,9.14
2022-10-23T13:11:28.596Z,9.73
2022-10-23T13:12:35.557Z,9.23
2022-10-23T13:13:41.027Z,9.22
2022-10-23T13:14:57.524Z,9.27
2022-10-23T13:15:59.508Z,9.04
2022-10-23T13:17:06.774Z,8.47
2022-10-23T13:18:11.280Z,8.90
2022-10-23T13:19:24.523Z,9.29
2022-10-23T13:20:29.609Z,10.07
2022-10-23T13:21:32.782Z,10.50
2022-10-23T13:22:34.717Z,9.84
2022-10-23T13:23:36.614Z,9.11
2022-10-23T13:24:41.319Z,10.92
2022-10-23T13:25:44.814Z,9.90
2022-10-23T13:26:46.731Z,10.74
2022-10-23T13:27:48.845Z,10.49
2022-10-23T13:28:51.018Z,10.02
2022-10-23T13:29:53.307Z,10.13
2022-10-23T13:31:00.955Z,9.82
2022-10-23T13:32:13.107Z,10.01
2022-10-23T13:33:20.663Z,9.85
2022-10-23T13:34:26.142Z,10.19
2022-10-23T13:35:28.237Z,8.99
2022-10-23T13:36:35.872Z,9.27
2022-10-23T13:37:39.100Z,8.54
2022-10-23T13:38:43.978Z,8.69
2022-10-23T13:39:45.836Z,8.81
2022-10-23T13:40:56.471Z,8.99
2022-10-23T13:42:18.398Z,8.46
2022-10-23T13:43:26.865Z,8.66
2022-10-23T13:44:28.988Z,8.87
2022-10-23T13:45:30.750Z,9.13
2022-10-23T13:46:33.149Z,9.06
2022-10-23T13:47:34.894Z,9.35
2022-10-23T13:48:36.610Z,8.98
2022-10-23T13:49:38.482Z,8.94
2022-10-23T13:50:40.200Z,9.35
2022-10-23T13:51:49.941Z,9.18
2022-10-23T13:52:52.793Z,9.77
2022-10-23T13:53:56.235Z,9.82
2022-10-23T13:54:57.942Z,10.08
2022-10-23T13:56:00.000Z,10.15
2022-10-23T13:57:01.940Z,10.49
2022-10-23T13:58:03.689Z,10.81
2022-10-23T13:59:05.393Z,10.76
2022-10-23T14:00:07.977Z,12.23
2022-10-23T14:01:26.872Z,13.55
2022-10-23T14:02:28.875Z,12.73
2022-10-23T14:03:30.739Z,12.47
2022-10-23T14:04:32.538Z,13.57
2022-10-23T14:05:34.381Z,14.02
2022-10-23T14:06:37.531Z,12.06
2022-10-23T14:07:39.782Z,11.61
2022-10-23T14:08:42.567Z,12.82
2022-10-23T14:09:44.690Z,12.13
2022-10-23T14:10:46.609Z,11.68
2022-10-23T14:11:48.413Z,11.40
2022-10-23T14:12:54.957Z,12.64
2022-10-23T14:13:56.812Z,11.89
2022-10-23T14:14:58.559Z,10.78
2022-10-23T14:16:00.258Z,10.52
2022-10-23T14:17:02.005Z,10.55
2022-10-23T14:18:08.068Z,10.95
2022-10-23T14:19:11.851Z,9.81
2022-10-23T14:20:13.669Z,9.77
2022-10-23T14:21:20.218Z,10.66
2022-10-23T14:22:21.970Z,10.83
2022-10-23T14:23:24.220Z,11.00
2022-10-23T14:24:26.115Z,10.42
2022-10-23T14:25:27.893Z,9.30
2022-10-23T14:26:30.448Z,10.29
2022-10-23T14:27:32.273Z,10.53
2022-10-23T14:28:34.553Z,10.69
2022-10-23T14:29:36.234Z,9.98
2022-10-23T14:30:38.254Z,11.79
2022-10-23T14:31:39.971Z,12.27
2022-10-23T14:32:42.216Z,11.11
2022-10-23T14:33:45.965Z,10.52
2022-10-23T14:34:53.093Z,10.63
2022-10-23T14:35:54.874Z,10.69
2022-10-23T14:37:07.972Z,10.97
2022-10-23T14:38:10.501Z,11.90
2022-10-23T14:39:12.277Z,11.85
2022-10-23T14:40:14.040Z,11.50
2022-10-23T14:41:17.402Z,10.45
2022-10-23T14:42:19.189Z,10.78
2022-10-23T14:43:22.891Z,9.83
2022-10-23T14:44:24.839Z,9.65
2022-10-23T14:45:26.613Z,9.78
2022-10-23T14:46:29.591Z,9.75
2022-10-23T14:47:31.699Z,10.58
2022-10-23T14:48:37.674Z,10.72
2022-10-23T14:49:40.350Z,10.06
2022-10-23T14:50:45.477Z,9.98
2022-10-23T14:51:47.227Z,9.85
2022-10-23T14:52:49.004Z,9.32
2022-10-23T14:54:01.853Z,9.17
2022-10-23T14:55:03.834Z,10.02
2022-10-23T14:56:06.274Z,9.95
2022-10-23T14:57:08.030Z,9.65
2022-10-23T14:58:09.801Z,8.82
2022-10-23T14:59:12.723Z,9.70
2022-10-23T15:00:14.754Z,9.68